Philipstown, New York
Current Conditions -  °F | °C
As of 5:45 AM on Monday 20 Oct 2014 (Local Time) from KSWF Reporting Station
Clear Clear  
Wind Chill: 36°   Ceiling: Unl
Heat Index: 36°   Visibility: 10mi
Dew Point: 28°   Wind: 0mph
Humidity: 75%   Direction: NA
Pressure: 30.07"   Gusts: NA
Location:  41.4593°N, 73.8985°W
Report Text: KSWF 200945Z 00000KT 10SM SKC 02/M02 A3007
Loading
Personal Weather Stations






























Interactive Weather Map
Tropical Storm Tracking
New forecast layout! Learn more

10-Day Weather Forecast

Advertisements
Track Severe Weather on mobile